This is the latest recevied weather packets stored in our database for station/object IA5ITY-13. If no packets are shown the sender has not sent any weather packets the latest 10 day(s).
| Time | Temp. | Humidity | Pressure | Rain* | Wind** | Luminosity | Snow |
|---|---|---|---|---|---|---|---|
| 1777643412 | 22.22° C | 18% | 1021.3 hPa | 0 mm | - | - | - |
| 1777642812 | 22.78° C | 18% | 1021.3 hPa | 0 mm | - | - | - |
| 1777642223 | 21.11° C | 18% | 1021.5 hPa | 0 mm | - | - | - |
| 1777641909 | 22.22° C | 17% | 1021.4 hPa | 0 mm | - | - | - |
| 1777641612 | 22.78° C | 19% | 1021.6 hPa | 0 mm | - | - | - |
| 1777641313 | 23.89° C | 17% | 1021.6 hPa | 0 mm | - | - | - |
| 1777641012 | 23.89° C | 17% | 1021.6 hPa | 0 mm | - | - | - |
| 1777640109 | 22.78° C | 19% | 1021.9 hPa | 0 mm | - | - | - |
| 1777639812 | 22.78° C | 20% | 1021.9 hPa | 0 mm | - | - | - |
| 1777639513 | 22.78° C | 23% | 1022 hPa | 0 mm | - | - | - |
| 1777638309 | 22.22° C | 25% | 1022.1 hPa | 0 mm | - | - | - |
| 1777638013 | 21.11° C | 28% | 1022 hPa | 0 mm | - | - | - |
| 1777637109 | 22.22° C | 28% | 1021.9 hPa | 0 mm | - | - | - |
| 1777636509 | 22.78° C | 24% | 1022.1 hPa | 0 mm | - | - | - |
| 1777636212 | 22.78° C | 20% | 1022.3 hPa | 0 mm | - | - | - |
| 1777635612 | 22.22° C | 22% | 1022.2 hPa | 0 mm | - | - | - |
| 1777635309 | 22.78° C | 23% | 1022.2 hPa | 0 mm | - | - | - |
| 1777635024 | 22.22° C | 25% | 1022.3 hPa | 0 mm | - | - | - |
| 1777634709 | 22.22° C | 26% | 1022.4 hPa | 0 mm | - | - | - |
| 1777634413 | 22.78° C | 23% | 1022.3 hPa | 0 mm | - | - | - |
| 1777634112 | 22.22° C | 26% | 1022.4 hPa | 0 mm | - | - | - |
| 1777633812 | 21.11° C | 29% | 1022.5 hPa | 0 mm | - | - | - |
| 1777633509 | 18.89° C | 39% | 1022.6 hPa | 0 mm | - | - | - |
| 1777633231 | 20° C | 39% | 1022.8 hPa | 0 mm | - | - | - |
| 1777632909 | 20° C | 37% | 1022.7 hPa | 0 mm | - | - | - |
* Rain latest hour (hover to see other rain measurements)
** Current wind speed in m/s (hover to see current wind gust speed)